sensor_id;sensor_type;location;lat;lon;timestamp;P1;durP1;ratioP1;P2;durP2;ratioP2
46006;SDS011;31738;50.188;8.524;2022-12-18T00:01:13;54.75;;;20.52;;
46006;SDS011;31738;50.188;8.524;2022-12-18T00:03:44;52.05;;;20.45;;
46006;SDS011;31738;50.188;8.524;2022-12-18T00:06:13;57.40;;;21.58;;
46006;SDS011;31738;50.188;8.524;2022-12-18T00:08:40;58.92;;;21.85;;
46006;SDS011;31738;50.188;8.524;2022-12-18T00:11:07;52.03;;;20.90;;
46006;SDS011;31738;50.188;8.524;2022-12-18T00:13:35;55.85;;;20.38;;
46006;SDS011;31738;50.188;8.524;2022-12-18T00:16:04;58.08;;;21.60;;
46006;SDS011;31738;50.188;8.524;2022-12-18T00:18:35;55.22;;;20.75;;
46006;SDS011;31738;50.188;8.524;2022-12-18T00:21:01;57.55;;;21.20;;
46006;SDS011;31738;50.188;8.524;2022-12-18T00:23:28;51.25;;;20.38;;
46006;SDS011;31738;50.188;8.524;2022-12-18T00:25:55;53.05;;;20.48;;
46006;SDS011;31738;50.188;8.524;2022-12-18T00:28:24;48.33;;;19.88;;
46006;SDS011;31738;50.188;8.524;2022-12-18T00:30:49;55.42;;;20.95;;
46006;SDS011;31738;50.188;8.524;2022-12-18T00:33:17;58.10;;;21.35;;
46006;SDS011;31738;50.188;8.524;2022-12-18T00:35:43;51.92;;;20.23;;
46006;SDS011;31738;50.188;8.524;2022-12-18T00:38:09;56.92;;;20.95;;
46006;SDS011;31738;50.188;8.524;2022-12-18T00:40:34;51.97;;;20.08;;
46006;SDS011;31738;50.188;8.524;2022-12-18T00:43:00;46.67;;;19.30;;
46006;SDS011;31738;50.188;8.524;2022-12-18T00:45:26;49.47;;;19.70;;
46006;SDS011;31738;50.188;8.524;2022-12-18T00:47:54;58.85;;;21.02;;
46006;SDS011;31738;50.188;8.524;2022-12-18T00:50:20;49.08;;;19.58;;
46006;SDS011;31738;50.188;8.524;2022-12-18T00:52:47;54.30;;;20.65;;
46006;SDS011;31738;50.188;8.524;2022-12-18T00:55:12;55.20;;;19.85;;
46006;SDS011;31738;50.188;8.524;2022-12-18T00:57:39;53.10;;;20.63;;
46006;SDS011;31738;50.188;8.524;2022-12-18T01:00:05;50.83;;;18.95;;
46006;SDS011;31738;50.188;8.524;2022-12-18T01:02:33;50.30;;;18.75;;
46006;SDS011;31738;50.188;8.524;2022-12-18T01:04:59;55.58;;;19.77;;
46006;SDS011;31738;50.188;8.524;2022-12-18T01:07:24;51.47;;;19.83;;
46006;SDS011;31738;50.188;8.524;2022-12-18T01:09:50;55.90;;;19.88;;
46006;SDS011;31738;50.188;8.524;2022-12-18T01:12:15;52.80;;;19.67;;
46006;SDS011;31738;50.188;8.524;2022-12-18T01:14:41;53.83;;;20.52;;
46006;SDS011;31738;50.188;8.524;2022-12-18T01:17:06;47.20;;;17.90;;
46006;SDS011;31738;50.188;8.524;2022-12-18T01:19:32;49.53;;;19.10;;
46006;SDS011;31738;50.188;8.524;2022-12-18T01:21:57;47.08;;;18.40;;
46006;SDS011;31738;50.188;8.524;2022-12-18T01:24:23;51.63;;;18.85;;
46006;SDS011;31738;50.188;8.524;2022-12-18T01:26:49;55.55;;;19.58;;
46006;SDS011;31738;50.188;8.524;2022-12-18T01:29:14;49.55;;;19.08;;
46006;SDS011;31738;50.188;8.524;2022-12-18T01:31:40;50.58;;;19.98;;
46006;SDS011;31738;50.188;8.524;2022-12-18T01:34:06;47.85;;;17.80;;
46006;SDS011;31738;50.188;8.524;2022-12-18T01:36:34;46.38;;;18.90;;
46006;SDS011;31738;50.188;8.524;2022-12-18T01:39:02;48.28;;;17.88;;
46006;SDS011;31738;50.188;8.524;2022-12-18T01:41:35;57.88;;;19.52;;
46006;SDS011;31738;50.188;8.524;2022-12-18T01:47:43;51.03;;;19.65;;
46006;SDS011;31738;50.188;8.524;2022-12-18T01:52:48;50.38;;;18.63;;
46006;SDS011;31738;50.188;8.524;2022-12-18T01:55:17;51.88;;;19.77;;
46006;SDS011;31738;50.188;8.524;2022-12-18T01:57:45;51.92;;;19.25;;
46006;SDS011;31738;50.188;8.524;2022-12-18T02:00:14;55.22;;;19.20;;
46006;SDS011;31738;50.188;8.524;2022-12-18T02:02:43;50.00;;;19.10;;
46006;SDS011;31738;50.188;8.524;2022-12-18T02:05:11;51.30;;;19.10;;
46006;SDS011;31738;50.188;8.524;2022-12-18T02:07:51;51.58;;;19.52;;
46006;SDS011;31738;50.188;8.524;2022-12-18T02:10:36;48.75;;;18.67;;
46006;SDS011;31738;50.188;8.524;2022-12-18T02:13:18;50.53;;;19.67;;
46006;SDS011;31738;50.188;8.524;2022-12-18T02:15:53;48.50;;;18.98;;
46006;SDS011;31738;50.188;8.524;2022-12-18T02:18:42;53.47;;;19.08;;
46006;SDS011;31738;50.188;8.524;2022-12-18T02:21:34;50.38;;;19.15;;
46006;SDS011;31738;50.188;8.524;2022-12-18T02:24:17;49.70;;;18.83;;
46006;SDS011;31738;50.188;8.524;2022-12-18T02:26:50;50.25;;;17.45;;
46006;SDS011;31738;50.188;8.524;2022-12-18T02:29:26;52.35;;;19.13;;
46006;SDS011;31738;50.188;8.524;2022-12-18T02:32:13;50.22;;;18.10;;
46006;SDS011;31738;50.188;8.524;2022-12-18T02:34:46;51.72;;;18.23;;
46006;SDS011;31738;50.188;8.524;2022-12-18T02:37:15;54.35;;;19.27;;
46006;SDS011;31738;50.188;8.524;2022-12-18T02:39:44;53.03;;;20.30;;
46006;SDS011;31738;50.188;8.524;2022-12-18T02:42:14;57.95;;;21.08;;
46006;SDS011;31738;50.188;8.524;2022-12-18T02:44:42;53.05;;;19.42;;
46006;SDS011;31738;50.188;8.524;2022-12-18T02:47:10;52.40;;;19.42;;
46006;SDS011;31738;50.188;8.524;2022-12-18T02:49:44;54.58;;;19.17;;
46006;SDS011;31738;50.188;8.524;2022-12-18T02:57:43;56.38;;;20.63;;
46006;SDS011;31738;50.188;8.524;2022-12-18T03:00:24;53.40;;;19.40;;
46006;SDS011;31738;50.188;8.524;2022-12-18T03:03:15;54.42;;;19.08;;
46006;SDS011;31738;50.188;8.524;2022-12-18T03:05:58;45.60;;;18.15;;
46006;SDS011;31738;50.188;8.524;2022-12-18T03:08:33;51.58;;;19.67;;
46006;SDS011;31738;50.188;8.524;2022-12-18T03:11:05;56.35;;;20.05;;
46006;SDS011;31738;50.188;8.524;2022-12-18T03:13:33;54.53;;;19.85;;
46006;SDS011;31738;50.188;8.524;2022-12-18T03:16:01;51.03;;;19.92;;
46006;SDS011;31738;50.188;8.524;2022-12-18T03:18:34;61.10;;;21.35;;
46006;SDS011;31738;50.188;8.524;2022-12-18T03:21:05;50.33;;;19.60;;
46006;SDS011;31738;50.188;8.524;2022-12-18T03:23:42;53.03;;;19.92;;
46006;SDS011;31738;50.188;8.524;2022-12-18T03:26:15;45.90;;;17.80;;
46006;SDS011;31738;50.188;8.524;2022-12-18T03:28:47;56.47;;;22.33;;
46006;SDS011;31738;50.188;8.524;2022-12-18T03:31:19;55.05;;;20.23;;
46006;SDS011;31738;50.188;8.524;2022-12-18T03:33:59;58.72;;;21.38;;
46006;SDS011;31738;50.188;8.524;2022-12-18T03:36:37;58.88;;;21.00;;
46006;SDS011;31738;50.188;8.524;2022-12-18T03:39:03;55.72;;;21.27;;
46006;SDS011;31738;50.188;8.524;2022-12-18T03:41:38;51.75;;;20.50;;
46006;SDS011;31738;50.188;8.524;2022-12-18T03:44:30;54.55;;;19.65;;
46006;SDS011;31738;50.188;8.524;2022-12-18T03:47:14;57.90;;;20.95;;
46006;SDS011;31738;50.188;8.524;2022-12-18T03:52:38;56.88;;;20.77;;
46006;SDS011;31738;50.188;8.524;2022-12-18T03:55:12;53.92;;;19.38;;
46006;SDS011;31738;50.188;8.524;2022-12-18T03:57:39;57.33;;;20.83;;
46006;SDS011;31738;50.188;8.524;2022-12-18T04:00:09;54.25;;;20.33;;
46006;SDS011;31738;50.188;8.524;2022-12-18T04:02:52;59.88;;;20.92;;
46006;SDS011;31738;50.188;8.524;2022-12-18T04:05:27;51.42;;;19.58;;
46006;SDS011;31738;50.188;8.524;2022-12-18T04:07:54;52.10;;;19.67;;
46006;SDS011;31738;50.188;8.524;2022-12-18T04:10:21;56.35;;;20.38;;
46006;SDS011;31738;50.188;8.524;2022-12-18T04:12:47;59.60;;;22.75;;
46006;SDS011;31738;50.188;8.524;2022-12-18T04:15:14;58.17;;;19.40;;
46006;SDS011;31738;50.188;8.524;2022-12-18T04:17:43;55.83;;;22.08;;
46006;SDS011;31738;50.188;8.524;2022-12-18T04:20:14;52.40;;;19.10;;
46006;SDS011;31738;50.188;8.524;2022-12-18T04:22:42;57.85;;;20.50;;
46006;SDS011;31738;50.188;8.524;2022-12-18T04:25:08;54.55;;;20.45;;
46006;SDS011;31738;50.188;8.524;2022-12-18T04:27:37;54.78;;;19.75;;
46006;SDS011;31738;50.188;8.524;2022-12-18T04:30:04;55.13;;;20.85;;
46006;SDS011;31738;50.188;8.524;2022-12-18T04:32:32;50.92;;;19.85;;
46006;SDS011;31738;50.188;8.524;2022-12-18T04:34:59;56.35;;;20.33;;
46006;SDS011;31738;50.188;8.524;2022-12-18T04:37:25;55.92;;;20.30;;
46006;SDS011;31738;50.188;8.524;2022-12-18T04:39:50;52.63;;;19.38;;
46006;SDS011;31738;50.188;8.524;2022-12-18T04:42:23;53.55;;;20.38;;
46006;SDS011;31738;50.188;8.524;2022-12-18T04:44:49;54.97;;;18.90;;
46006;SDS011;31738;50.188;8.524;2022-12-18T04:47:14;53.22;;;20.17;;
46006;SDS011;31738;50.188;8.524;2022-12-18T04:49:40;61.47;;;20.95;;
46006;SDS011;31738;50.188;8.524;2022-12-18T04:52:05;51.17;;;19.85;;
46006;SDS011;31738;50.188;8.524;2022-12-18T04:54:30;57.08;;;21.33;;
46006;SDS011;31738;50.188;8.524;2022-12-18T04:56:56;59.72;;;21.65;;
46006;SDS011;31738;50.188;8.524;2022-12-18T04:59:21;53.85;;;20.05;;
46006;SDS011;31738;50.188;8.524;2022-12-18T05:01:47;56.75;;;20.48;;
46006;SDS011;31738;50.188;8.524;2022-12-18T05:04:12;55.60;;;20.48;;
46006;SDS011;31738;50.188;8.524;2022-12-18T05:06:38;56.90;;;21.15;;
46006;SDS011;31738;50.188;8.524;2022-12-18T05:09:03;56.65;;;21.55;;
46006;SDS011;31738;50.188;8.524;2022-12-18T05:11:29;64.72;;;21.58;;
46006;SDS011;31738;50.188;8.524;2022-12-18T05:13:54;58.67;;;22.55;;
46006;SDS011;31738;50.188;8.524;2022-12-18T05:16:21;65.90;;;22.20;;
46006;SDS011;31738;50.188;8.524;2022-12-18T05:18:46;67.18;;;22.67;;
46006;SDS011;31738;50.188;8.524;2022-12-18T05:21:12;60.17;;;21.02;;
46006;SDS011;31738;50.188;8.524;2022-12-18T05:23:37;65.38;;;22.38;;
46006;SDS011;31738;50.188;8.524;2022-12-18T05:26:04;52.83;;;20.10;;
46006;SDS011;31738;50.188;8.524;2022-12-18T05:28:31;54.63;;;20.92;;
46006;SDS011;31738;50.188;8.524;2022-12-18T05:30:59;59.85;;;21.08;;
46006;SDS011;31738;50.188;8.524;2022-12-18T05:33:27;60.10;;;22.13;;
46006;SDS011;31738;50.188;8.524;2022-12-18T05:35:59;59.20;;;21.15;;
46006;SDS011;31738;50.188;8.524;2022-12-18T05:38:26;67.32;;;21.45;;
46006;SDS011;31738;50.188;8.524;2022-12-18T05:40:53;51.28;;;21.13;;
46006;SDS011;31738;50.188;8.524;2022-12-18T05:43:19;54.78;;;20.60;;
46006;SDS011;31738;50.188;8.524;2022-12-18T05:45:49;61.67;;;21.17;;
46006;SDS011;31738;50.188;8.524;2022-12-18T05:48:16;58.50;;;21.75;;
46006;SDS011;31738;50.188;8.524;2022-12-18T05:50:42;56.03;;;20.83;;
46006;SDS011;31738;50.188;8.524;2022-12-18T05:53:10;54.90;;;21.40;;
46006;SDS011;31738;50.188;8.524;2022-12-18T05:55:37;57.85;;;20.08;;
46006;SDS011;31738;50.188;8.524;2022-12-18T05:58:04;54.22;;;20.73;;
46006;SDS011;31738;50.188;8.524;2022-12-18T06:00:32;55.10;;;20.90;;
46006;SDS011;31738;50.188;8.524;2022-12-18T06:03:00;58.28;;;20.45;;
46006;SDS011;31738;50.188;8.524;2022-12-18T06:05:26;50.05;;;19.65;;
46006;SDS011;31738;50.188;8.524;2022-12-18T06:07:52;48.65;;;19.05;;
46006;SDS011;31738;50.188;8.524;2022-12-18T06:10:20;54.05;;;18.23;;
46006;SDS011;31738;50.188;8.524;2022-12-18T06:12:45;58.80;;;20.77;;
46006;SDS011;31738;50.188;8.524;2022-12-18T06:15:11;53.53;;;18.17;;
46006;SDS011;31738;50.188;8.524;2022-12-18T06:17:36;51.80;;;19.73;;
46006;SDS011;31738;50.188;8.524;2022-12-18T06:20:02;48.25;;;18.50;;
46006;SDS011;31738;50.188;8.524;2022-12-18T06:22:30;51.33;;;18.40;;
46006;SDS011;31738;50.188;8.524;2022-12-18T06:24:57;46.30;;;18.00;;
46006;SDS011;31738;50.188;8.524;2022-12-18T06:27:22;51.72;;;19.48;;
46006;SDS011;31738;50.188;8.524;2022-12-18T06:29:48;47.90;;;18.35;;
46006;SDS011;31738;50.188;8.524;2022-12-18T06:32:13;47.38;;;18.92;;
46006;SDS011;31738;50.188;8.524;2022-12-18T06:34:39;41.97;;;17.90;;
46006;SDS011;31738;50.188;8.524;2022-12-18T06:37:04;45.67;;;17.65;;
46006;SDS011;31738;50.188;8.524;2022-12-18T06:39:30;49.95;;;18.25;;
46006;SDS011;31738;50.188;8.524;2022-12-18T06:41:55;49.80;;;16.70;;
46006;SDS011;31738;50.188;8.524;2022-12-18T06:44:21;48.67;;;16.45;;
46006;SDS011;31738;50.188;8.524;2022-12-18T06:46:46;44.25;;;17.35;;
46006;SDS011;31738;50.188;8.524;2022-12-18T06:49:12;49.72;;;19.00;;
46006;SDS011;31738;50.188;8.524;2022-12-18T06:51:37;49.63;;;17.98;;
46006;SDS011;31738;50.188;8.524;2022-12-18T06:54:03;52.35;;;17.98;;
46006;SDS011;31738;50.188;8.524;2022-12-18T06:56:29;42.63;;;16.40;;
46006;SDS011;31738;50.188;8.524;2022-12-18T06:58:54;50.65;;;18.17;;
46006;SDS011;31738;50.188;8.524;2022-12-18T07:01:20;48.42;;;17.73;;
46006;SDS011;31738;50.188;8.524;2022-12-18T07:03:46;52.60;;;17.85;;
46006;SDS011;31738;50.188;8.524;2022-12-18T07:06:17;44.60;;;16.80;;
46006;SDS011;31738;50.188;8.524;2022-12-18T07:08:44;46.03;;;17.45;;
46006;SDS011;31738;50.188;8.524;2022-12-18T07:11:10;46.42;;;16.92;;
46006;SDS011;31738;50.188;8.524;2022-12-18T07:13:36;43.72;;;16.92;;
46006;SDS011;31738;50.188;8.524;2022-12-18T07:16:08;47.50;;;17.70;;
46006;SDS011;31738;50.188;8.524;2022-12-18T07:18:38;43.72;;;17.42;;
46006;SDS011;31738;50.188;8.524;2022-12-18T07:21:05;45.95;;;16.88;;
46006;SDS011;31738;50.188;8.524;2022-12-18T07:23:32;41.70;;;15.60;;
46006;SDS011;31738;50.188;8.524;2022-12-18T07:26:06;42.03;;;15.25;;
46006;SDS011;31738;50.188;8.524;2022-12-18T07:31:04;49.33;;;15.38;;
46006;SDS011;31738;50.188;8.524;2022-12-18T07:33:31;44.45;;;15.82;;
46006;SDS011;31738;50.188;8.524;2022-12-18T07:36:01;49.85;;;18.23;;
46006;SDS011;31738;50.188;8.524;2022-12-18T07:38:28;49.38;;;16.88;;
46006;SDS011;31738;50.188;8.524;2022-12-18T07:40:54;43.88;;;17.35;;
46006;SDS011;31738;50.188;8.524;2022-12-18T07:43:25;49.88;;;17.17;;
46006;SDS011;31738;50.188;8.524;2022-12-18T07:45:51;42.10;;;16.30;;
46006;SDS011;31738;50.188;8.524;2022-12-18T07:48:16;37.97;;;15.00;;
46006;SDS011;31738;50.188;8.524;2022-12-18T07:50:42;42.20;;;14.98;;
46006;SDS011;31738;50.188;8.524;2022-12-18T07:53:07;48.80;;;16.83;;
46006;SDS011;31738;50.188;8.524;2022-12-18T07:55:32;46.85;;;16.90;;
46006;SDS011;31738;50.188;8.524;2022-12-18T07:58:00;46.08;;;16.98;;
46006;SDS011;31738;50.188;8.524;2022-12-18T08:00:27;50.67;;;17.20;;
46006;SDS011;31738;50.188;8.524;2022-12-18T08:02:53;45.03;;;16.73;;
46006;SDS011;31738;50.188;8.524;2022-12-18T08:05:18;43.90;;;15.90;;
46006;SDS011;31738;50.188;8.524;2022-12-18T08:07:45;49.85;;;17.63;;
46006;SDS011;31738;50.188;8.524;2022-12-18T08:10:11;44.13;;;16.55;;
46006;SDS011;31738;50.188;8.524;2022-12-18T08:12:37;46.35;;;16.42;;
46006;SDS011;31738;50.188;8.524;2022-12-18T08:15:03;44.20;;;16.80;;
46006;SDS011;31738;50.188;8.524;2022-12-18T08:17:28;43.40;;;17.38;;
46006;SDS011;31738;50.188;8.524;2022-12-18T08:19:54;45.25;;;16.85;;
46006;SDS011;31738;50.188;8.524;2022-12-18T08:22:19;42.13;;;16.23;;
46006;SDS011;31738;50.188;8.524;2022-12-18T08:24:45;49.78;;;18.10;;
46006;SDS011;31738;50.188;8.524;2022-12-18T08:27:11;47.88;;;16.75;;
46006;SDS011;31738;50.188;8.524;2022-12-18T08:29:36;45.63;;;16.83;;
46006;SDS011;31738;50.188;8.524;2022-12-18T08:32:02;47.10;;;18.35;;
46006;SDS011;31738;50.188;8.524;2022-12-18T08:34:28;45.45;;;17.02;;
46006;SDS011;31738;50.188;8.524;2022-12-18T08:36:53;43.05;;;17.27;;
46006;SDS011;31738;50.188;8.524;2022-12-18T08:39:19;40.38;;;16.52;;
46006;SDS011;31738;50.188;8.524;2022-12-18T08:41:44;40.03;;;16.60;;
46006;SDS011;31738;50.188;8.524;2022-12-18T08:44:30;47.40;;;17.42;;
46006;SDS011;31738;50.188;8.524;2022-12-18T08:47:07;41.90;;;16.95;;
46006;SDS011;31738;50.188;8.524;2022-12-18T08:49:33;40.85;;;17.05;;
46006;SDS011;31738;50.188;8.524;2022-12-18T08:52:00;46.35;;;17.48;;
46006;SDS011;31738;50.188;8.524;2022-12-18T08:54:26;45.63;;;18.73;;
46006;SDS011;31738;50.188;8.524;2022-12-18T08:56:51;47.13;;;18.92;;
46006;SDS011;31738;50.188;8.524;2022-12-18T08:59:17;46.55;;;18.45;;
46006;SDS011;31738;50.188;8.524;2022-12-18T09:01:49;47.90;;;18.80;;
46006;SDS011;31738;50.188;8.524;2022-12-18T09:04:23;53.35;;;19.52;;
46006;SDS011;31738;50.188;8.524;2022-12-18T09:09:32;46.42;;;18.85;;
46006;SDS011;31738;50.188;8.524;2022-12-18T09:11:58;49.60;;;18.85;;
46006;SDS011;31738;50.188;8.524;2022-12-18T09:14:24;45.40;;;17.60;;
46006;SDS011;31738;50.188;8.524;2022-12-18T09:16:59;47.42;;;18.83;;
46006;SDS011;31738;50.188;8.524;2022-12-18T09:19:30;48.97;;;19.63;;
46006;SDS011;31738;50.188;8.524;2022-12-18T09:21:56;50.10;;;18.35;;
46006;SDS011;31738;50.188;8.524;2022-12-18T09:24:21;49.25;;;19.33;;
46006;SDS011;31738;50.188;8.524;2022-12-18T09:26:47;47.28;;;19.08;;
46006;SDS011;31738;50.188;8.524;2022-12-18T09:29:15;48.35;;;19.02;;
46006;SDS011;31738;50.188;8.524;2022-12-18T09:31:44;34.75;;;12.35;;
46006;SDS011;31738;50.188;8.524;2022-12-18T09:34:10;45.58;;;18.33;;
46006;SDS011;31738;50.188;8.524;2022-12-18T09:36:36;45.72;;;18.85;;
46006;SDS011;31738;50.188;8.524;2022-12-18T09:39:02;42.00;;;16.00;;
46006;SDS011;31738;50.188;8.524;2022-12-18T09:44:17;43.70;;;18.15;;
46006;SDS011;31738;50.188;8.524;2022-12-18T09:49:43;44.88;;;18.70;;
46006;SDS011;31738;50.188;8.524;2022-12-18T09:52:13;49.17;;;20.05;;
46006;SDS011;31738;50.188;8.524;2022-12-18T09:54:39;46.30;;;20.38;;
46006;SDS011;31738;50.188;8.524;2022-12-18T09:57:10;48.95;;;20.10;;
46006;SDS011;31738;50.188;8.524;2022-12-18T09:59:46;51.08;;;20.17;;
46006;SDS011;31738;50.188;8.524;2022-12-18T10:02:25;54.78;;;21.40;;
46006;SDS011;31738;50.188;8.524;2022-12-18T10:05:14;55.97;;;22.67;;
46006;SDS011;31738;50.188;8.524;2022-12-18T10:10:53;60.23;;;20.67;;
46006;SDS011;31738;50.188;8.524;2022-12-18T10:13:39;54.75;;;22.25;;
46006;SDS011;31738;50.188;8.524;2022-12-18T10:16:12;53.53;;;21.50;;
46006;SDS011;31738;50.188;8.524;2022-12-18T10:21:18;62.03;;;23.88;;
46006;SDS011;31738;50.188;8.524;2022-12-18T10:26:55;62.10;;;23.63;;
46006;SDS011;31738;50.188;8.524;2022-12-18T10:29:24;64.20;;;23.70;;
46006;SDS011;31738;50.188;8.524;2022-12-18T10:31:50;73.97;;;25.90;;
46006;SDS011;31738;50.188;8.524;2022-12-18T10:34:16;62.22;;;24.90;;
46006;SDS011;31738;50.188;8.524;2022-12-18T10:36:41;65.07;;;25.98;;
46006;SDS011;31738;50.188;8.524;2022-12-18T10:39:14;63.03;;;26.45;;
46006;SDS011;31738;50.188;8.524;2022-12-18T10:41:40;69.65;;;28.45;;
46006;SDS011;31738;50.188;8.524;2022-12-18T10:44:19;69.30;;;28.02;;
46006;SDS011;31738;50.188;8.524;2022-12-18T10:46:49;70.88;;;27.05;;
46006;SDS011;31738;50.188;8.524;2022-12-18T10:49:20;76.95;;;27.75;;
46006;SDS011;31738;50.188;8.524;2022-12-18T10:51:49;72.35;;;27.95;;
46006;SDS011;31738;50.188;8.524;2022-12-18T10:56:46;70.75;;;26.08;;
46006;SDS011;31738;50.188;8.524;2022-12-18T10:59:13;74.03;;;29.13;;
46006;SDS011;31738;50.188;8.524;2022-12-18T11:01:48;82.43;;;29.95;;
46006;SDS011;31738;50.188;8.524;2022-12-18T11:09:29;77.65;;;28.60;;
46006;SDS011;31738;50.188;8.524;2022-12-18T11:12:15;78.65;;;29.13;;
46006;SDS011;31738;50.188;8.524;2022-12-18T11:14:43;80.18;;;29.45;;
46006;SDS011;31738;50.188;8.524;2022-12-18T11:17:19;83.57;;;29.73;;
46006;SDS011;31738;50.188;8.524;2022-12-18T11:19:57;81.47;;;29.80;;
46006;SDS011;31738;50.188;8.524;2022-12-18T11:22:28;77.43;;;28.85;;
46006;SDS011;31738;50.188;8.524;2022-12-18T11:24:58;78.10;;;28.40;;
46006;SDS011;31738;50.188;8.524;2022-12-18T11:27:26;85.53;;;30.00;;
46006;SDS011;31738;50.188;8.524;2022-12-18T11:30:06;82.88;;;29.70;;
46006;SDS011;31738;50.188;8.524;2022-12-18T11:32:46;77.60;;;29.08;;
46006;SDS011;31738;50.188;8.524;2022-12-18T11:40:42;83.53;;;29.33;;
46006;SDS011;31738;50.188;8.524;2022-12-18T11:43:22;78.15;;;26.98;;
46006;SDS011;31738;50.188;8.524;2022-12-18T11:45:53;82.28;;;29.17;;
46006;SDS011;31738;50.188;8.524;2022-12-18T11:48:32;79.00;;;29.52;;
46006;SDS011;31738;50.188;8.524;2022-12-18T11:51:03;76.90;;;28.25;;
46006;SDS011;31738;50.188;8.524;2022-12-18T11:53:33;80.00;;;29.33;;
46006;SDS011;31738;50.188;8.524;2022-12-18T12:16:41;85.43;;;29.27;;
46006;SDS011;31738;50.188;8.524;2022-12-18T12:22:44;85.40;;;28.97;;
46006;SDS011;31738;50.188;8.524;2022-12-18T12:26:03;78.40;;;26.83;;
46006;SDS011;31738;50.188;8.524;2022-12-18T12:31:03;71.75;;;24.60;;
46006;SDS011;31738;50.188;8.524;2022-12-18T12:33:34;84.03;;;27.60;;
46006;SDS011;31738;50.188;8.524;2022-12-18T12:36:09;97.43;;;30.00;;
46006;SDS011;31738;50.188;8.524;2022-12-18T12:41:12;89.30;;;29.88;;
46006;SDS011;31738;50.188;8.524;2022-12-18T12:43:59;86.32;;;27.77;;
46006;SDS011;31738;50.188;8.524;2022-12-18T12:46:29;83.25;;;28.90;;
46006;SDS011;31738;50.188;8.524;2022-12-18T12:49:01;81.65;;;28.50;;
46006;SDS011;31738;50.188;8.524;2022-12-18T12:51:35;90.20;;;29.88;;
46006;SDS011;31738;50.188;8.524;2022-12-18T12:54:08;85.72;;;27.67;;
46006;SDS011;31738;50.188;8.524;2022-12-18T13:02:08;85.20;;;27.98;;
46006;SDS011;31738;50.188;8.524;2022-12-18T13:04:49;86.75;;;30.45;;
46006;SDS011;31738;50.188;8.524;2022-12-18T13:07:26;92.07;;;30.13;;
46006;SDS011;31738;50.188;8.524;2022-12-18T13:15:27;94.03;;;30.58;;
46006;SDS011;31738;50.188;8.524;2022-12-18T13:18:05;89.72;;;31.15;;
46006;SDS011;31738;50.188;8.524;2022-12-18T13:23:28;98.00;;;30.75;;
46006;SDS011;31738;50.188;8.524;2022-12-18T13:30:59;86.60;;;29.60;;
46006;SDS011;31738;50.188;8.524;2022-12-18T13:35:55;86.97;;;30.35;;
46006;SDS011;31738;50.188;8.524;2022-12-18T13:38:38;92.22;;;31.60;;
46006;SDS011;31738;50.188;8.524;2022-12-18T13:41:07;98.03;;;31.73;;
46006;SDS011;31738;50.188;8.524;2022-12-18T13:43:49;97.63;;;32.15;;
46006;SDS011;31738;50.188;8.524;2022-12-18T13:46:18;88.35;;;29.40;;
46006;SDS011;31738;50.188;8.524;2022-12-18T13:48:56;100.47;;;30.85;;
46006;SDS011;31738;50.188;8.524;2022-12-18T13:51:22;95.68;;;29.42;;
46006;SDS011;31738;50.188;8.524;2022-12-18T13:53:53;91.75;;;29.52;;
46006;SDS011;31738;50.188;8.524;2022-12-18T13:56:22;90.30;;;28.38;;
46006;SDS011;31738;50.188;8.524;2022-12-18T14:01:55;94.18;;;30.75;;
46006;SDS011;31738;50.188;8.524;2022-12-18T14:09:35;88.72;;;28.30;;
46006;SDS011;31738;50.188;8.524;2022-12-18T14:12:13;90.05;;;29.65;;
46006;SDS011;31738;50.188;8.524;2022-12-18T14:15:00;84.95;;;27.55;;
46006;SDS011;31738;50.188;8.524;2022-12-18T14:17:25;91.72;;;29.42;;
46006;SDS011;31738;50.188;8.524;2022-12-18T14:19:51;83.68;;;28.20;;
46006;SDS011;31738;50.188;8.524;2022-12-18T14:22:26;83.93;;;28.50;;
46006;SDS011;31738;50.188;8.524;2022-12-18T14:30:32;91.18;;;28.40;;
46006;SDS011;31738;50.188;8.524;2022-12-18T14:35:35;86.53;;;27.95;;
46006;SDS011;31738;50.188;8.524;2022-12-18T14:41:02;84.53;;;27.25;;
46006;SDS011;31738;50.188;8.524;2022-12-18T14:43:35;86.90;;;28.73;;
46006;SDS011;31738;50.188;8.524;2022-12-18T14:46:04;89.95;;;29.67;;
46006;SDS011;31738;50.188;8.524;2022-12-18T14:51:18;90.88;;;28.30;;
46006;SDS011;31738;50.188;8.524;2022-12-18T14:53:45;87.05;;;26.92;;
46006;SDS011;31738;50.188;8.524;2022-12-18T14:56:15;91.03;;;28.98;;
46006;SDS011;31738;50.188;8.524;2022-12-18T14:58:53;87.88;;;27.92;;
46006;SDS011;31738;50.188;8.524;2022-12-18T15:01:45;78.35;;;25.52;;
46006;SDS011;31738;50.188;8.524;2022-12-18T15:07:49;83.55;;;25.92;;
46006;SDS011;31738;50.188;8.524;2022-12-18T15:10:48;77.70;;;27.20;;
46006;SDS011;31738;50.188;8.524;2022-12-18T15:13:22;82.93;;;25.70;;
46006;SDS011;31738;50.188;8.524;2022-12-18T15:16:43;76.07;;;25.97;;
46006;SDS011;31738;50.188;8.524;2022-12-18T15:20:09;87.05;;;26.25;;
46006;SDS011;31738;50.188;8.524;2022-12-18T15:22:58;84.60;;;27.42;;
46006;SDS011;31738;50.188;8.524;2022-12-18T15:25:40;88.28;;;28.60;;
46006;SDS011;31738;50.188;8.524;2022-12-18T15:28:46;77.07;;;25.27;;
46006;SDS011;31738;50.188;8.524;2022-12-18T15:35:01;84.32;;;27.77;;
46006;SDS011;31738;50.188;8.524;2022-12-18T15:38:07;76.40;;;25.92;;
46006;SDS011;31738;50.188;8.524;2022-12-18T15:40:33;83.10;;;26.67;;
46006;SDS011;31738;50.188;8.524;2022-12-18T15:43:10;78.15;;;25.40;;
46006;SDS011;31738;50.188;8.524;2022-12-18T15:46:06;78.00;;;24.73;;
46006;SDS011;31738;50.188;8.524;2022-12-18T15:49:07;80.65;;;27.23;;
46006;SDS011;31738;50.188;8.524;2022-12-18T15:51:40;81.55;;;26.05;;
46006;SDS011;31738;50.188;8.524;2022-12-18T15:54:15;78.32;;;26.52;;
46006;SDS011;31738;50.188;8.524;2022-12-18T15:57:09;86.60;;;26.10;;
46006;SDS011;31738;50.188;8.524;2022-12-18T15:59:52;91.75;;;26.88;;
46006;SDS011;31738;50.188;8.524;2022-12-18T16:02:42;76.28;;;25.13;;
46006;SDS011;31738;50.188;8.524;2022-12-18T16:05:13;77.00;;;25.65;;
46006;SDS011;31738;50.188;8.524;2022-12-18T16:07:40;82.13;;;27.48;;
46006;SDS011;31738;50.188;8.524;2022-12-18T16:10:09;80.47;;;25.88;;
46006;SDS011;31738;50.188;8.524;2022-12-18T16:15:07;77.70;;;23.40;;
46006;SDS011;31738;50.188;8.524;2022-12-18T16:17:39;84.55;;;26.58;;
46006;SDS011;31738;50.188;8.524;2022-12-18T16:20:07;74.90;;;25.77;;
46006;SDS011;31738;50.188;8.524;2022-12-18T16:22:43;84.25;;;25.08;;
46006;SDS011;31738;50.188;8.524;2022-12-18T16:25:17;80.85;;;26.45;;
46006;SDS011;31738;50.188;8.524;2022-12-18T16:27:55;81.95;;;26.05;;
46006;SDS011;31738;50.188;8.524;2022-12-18T16:30:27;74.97;;;24.83;;
46006;SDS011;31738;50.188;8.524;2022-12-18T16:32:59;82.07;;;26.15;;
46006;SDS011;31738;50.188;8.524;2022-12-18T16:35:27;83.72;;;25.92;;
46006;SDS011;31738;50.188;8.524;2022-12-18T16:37:56;79.07;;;25.65;;
46006;SDS011;31738;50.188;8.524;2022-12-18T16:40:26;80.85;;;25.50;;
46006;SDS011;31738;50.188;8.524;2022-12-18T16:43:28;74.63;;;24.75;;
46006;SDS011;31738;50.188;8.524;2022-12-18T16:46:14;78.63;;;25.60;;
46006;SDS011;31738;50.188;8.524;2022-12-18T16:48:46;87.32;;;25.73;;
46006;SDS011;31738;50.188;8.524;2022-12-18T16:51:22;76.68;;;26.17;;
46006;SDS011;31738;50.188;8.524;2022-12-18T16:54:39;76.03;;;25.38;;